AFL454 FMMI-FIMP
Flight info
| Callsign | AFL454 |
|---|---|
| Flight time | 1h 20m |
| Altitude | 37000 |
| Route | PIPRI1E TE UA400 RASMA RASMA2E |
| Aircraft | A35K/H-SDE2E3GHIJ3J4J5LM1ORWXY/LB1D1 |
Departure
| Time | 2026-04-26 08:34 |
|---|---|
| Airport | Ivato International Airport (FMMI) |
Arrival
| Time | 2026-04-26 09:54 |
|---|---|
| Airport | Sir Seewoosagur Ramgoolam International Airport (FIMP) |
| Time | Latitude | Longitude | Altitude | Speed | Heading |
|---|---|---|---|---|---|
| 2026-04-26 08:19 | -18.79830 | 47.47101 | 4192 ft | 0 kts | 118° |
| 2026-04-26 08:26 | -18.79826 | 47.47093 | 4192 ft | 2 kts | 118° |
| 2026-04-26 08:26 | -18.79824 | 47.47093 | 4192 ft | 1 kts | 105° |
| 2026-04-26 08:27 | -18.79819 | 47.47105 | 4192 ft | 2 kts | 61° |
| 2026-04-26 08:27 | -18.79816 | 47.47107 | 4192 ft | 1 kts | 46° |
| 2026-04-26 08:27 | -18.79810 | 47.47108 | 4192 ft | 1 kts | 14° |
| 2026-04-26 08:27 | -18.79802 | 47.47109 | 4192 ft | 0 kts | 13° |
| 2026-04-26 08:28 | -18.79791 | 47.47111 | 4192 ft | 3 kts | 10° |
| 2026-04-26 08:28 | -18.79758 | 47.47118 | 4192 ft | 7 kts | 10° |
| 2026-04-26 08:29 | -18.79703 | 47.47128 | 4192 ft | 9 kts | 10° |
| 2026-04-26 08:29 | -18.79637 | 47.47139 | 4191 ft | 8 kts | 5° |
| 2026-04-26 08:29 | -18.79586 | 47.47114 | 4192 ft | 8 kts | 304° |
| 2026-04-26 08:29 | -18.79573 | 47.47053 | 4193 ft | 9 kts | 281° |
| 2026-04-26 08:30 | -18.79560 | 47.46986 | 4195 ft | 9 kts | 280° |
| 2026-04-26 08:30 | -18.79549 | 47.46918 | 4198 ft | 9 kts | 279° |
| 2026-04-26 08:30 | -18.79538 | 47.46854 | 4200 ft | 8 kts | 281° |
| 2026-04-26 08:30 | -18.79528 | 47.46793 | 4202 ft | 9 kts | 280° |
| 2026-04-26 08:31 | -18.79517 | 47.46729 | 4204 ft | 9 kts | 280° |
| 2026-04-26 08:31 | -18.79506 | 47.46658 | 4205 ft | 10 kts | 279° |
| 2026-04-26 08:31 | -18.79494 | 47.46583 | 4207 ft | 11 kts | 279° |
| 2026-04-26 08:31 | -18.79470 | 47.46513 | 4209 ft | 10 kts | 313° |
| 2026-04-26 08:32 | -18.79443 | 47.46458 | 4211 ft | 7 kts | 266° |
| 2026-04-26 08:32 | -18.79463 | 47.46438 | 4212 ft | 3 kts | 189° |
| 2026-04-26 08:32 | -18.79471 | 47.46448 | 4211 ft | 2 kts | 122° |
| 2026-04-26 08:32 | -18.79471 | 47.46452 | 4211 ft | 0 kts | 104° |
| 2026-04-26 08:33 | -18.79521 | 47.46743 | 4203 ft | 77 kts | 97° |
| 2026-04-26 08:33 | -18.79642 | 47.47545 | 4182 ft | 142 kts | 98° |
| 2026-04-26 08:33 | -18.79833 | 47.48770 | 4223 ft | 191 kts | 98° |
| 2026-04-26 08:34 | -18.80051 | 47.50229 | 4625 ft | 211 kts | 98° |
| 2026-04-26 08:34 | -18.80282 | 47.51776 | 5028 ft | 215 kts | 98° |
| 2026-04-26 08:34 | -18.80525 | 47.53363 | 5400 ft | 220 kts | 98° |
| 2026-04-26 08:34 | -18.80764 | 47.54987 | 5630 ft | 235 kts | 98° |
| 2026-04-26 08:35 | -18.81111 | 47.56753 | 5896 ft | 257 kts | 102° |
| 2026-04-26 08:35 | -18.81542 | 47.58646 | 6361 ft | 270 kts | 101° |
| 2026-04-26 08:35 | -18.81982 | 47.60575 | 7197 ft | 270 kts | 102° |
| 2026-04-26 08:35 | -18.82413 | 47.62505 | 8047 ft | 271 kts | 102° |
| 2026-04-26 08:36 | -18.82842 | 47.64449 | 8849 ft | 274 kts | 103° |
| 2026-04-26 08:36 | -18.83276 | 47.66429 | 9537 ft | 280 kts | 104° |
| 2026-04-26 08:36 | -18.83721 | 47.68451 | 10221 ft | 285 kts | 104° |
| 2026-04-26 08:36 | -18.84175 | 47.70528 | 10739 ft | 299 kts | 104° |
| 2026-04-26 08:37 | -18.84657 | 47.72738 | 11039 ft | 318 kts | 103° |
| 2026-04-26 08:37 | -18.85167 | 47.75081 | 11335 ft | 336 kts | 103° |
| 2026-04-26 08:37 | -18.85701 | 47.77545 | 11678 ft | 351 kts | 103° |
| 2026-04-26 08:37 | -18.86245 | 47.80057 | 12204 ft | 359 kts | 103° |
| 2026-04-26 08:38 | -18.86802 | 47.82642 | 12831 ft | 363 kts | 103° |
| 2026-04-26 08:38 | -18.87369 | 47.85263 | 13446 ft | 368 kts | 103° |
| 2026-04-26 08:38 | -18.87945 | 47.87915 | 14059 ft | 372 kts | 103° |
| 2026-04-26 08:38 | -18.88525 | 47.90590 | 14660 ft | 375 kts | 103° |
| 2026-04-26 08:39 | -18.89108 | 47.93291 | 15237 ft | 379 kts | 103° |
| 2026-04-26 08:39 | -18.89685 | 47.96023 | 15785 ft | 383 kts | 103° |
| 2026-04-26 08:39 | -18.90262 | 47.98790 | 16295 ft | 387 kts | 103° |
| 2026-04-26 08:39 | -18.90845 | 48.01584 | 16814 ft | 391 kts | 103° |
| 2026-04-26 08:40 | -18.91434 | 48.04404 | 17345 ft | 394 kts | 103° |
| 2026-04-26 08:40 | -18.92026 | 48.07241 | 17849 ft | 397 kts | 104° |
| 2026-04-26 08:40 | -18.92617 | 48.10061 | 18328 ft | 400 kts | 104° |
| 2026-04-26 08:40 | -18.93220 | 48.12945 | 18801 ft | 404 kts | 104° |
| 2026-04-26 08:41 | -18.93828 | 48.15854 | 19260 ft | 408 kts | 104° |
| 2026-04-26 08:41 | -18.94442 | 48.18794 | 19685 ft | 412 kts | 104° |
| 2026-04-26 08:41 | -18.95061 | 48.21761 | 20114 ft | 415 kts | 104° |
| 2026-04-26 08:41 | -18.95679 | 48.24753 | 20578 ft | 419 kts | 103° |
| 2026-04-26 08:42 | -18.96257 | 48.27782 | 21002 ft | 423 kts | 102° |
| 2026-04-26 08:42 | -18.96809 | 48.30854 | 21455 ft | 426 kts | 102° |
| 2026-04-26 08:42 | -18.97354 | 48.33949 | 21894 ft | 430 kts | 102° |
| 2026-04-26 08:42 | -18.97901 | 48.37063 | 22343 ft | 432 kts | 102° |
| 2026-04-26 08:43 | -18.98452 | 48.40168 | 22740 ft | 437 kts | 102° |
| 2026-04-26 08:43 | -18.99029 | 48.43372 | 23149 ft | 440 kts | 102° |
| 2026-04-26 08:43 | -18.99599 | 48.46520 | 23550 ft | 444 kts | 102° |
| 2026-04-26 08:43 | -19.00191 | 48.49774 | 23946 ft | 447 kts | 103° |
| 2026-04-26 08:44 | -19.00773 | 48.52975 | 24331 ft | 450 kts | 103° |
| 2026-04-26 08:44 | -19.01365 | 48.56235 | 24735 ft | 454 kts | 102° |
| 2026-04-26 08:44 | -19.01961 | 48.59521 | 25150 ft | 457 kts | 103° |
| 2026-04-26 08:44 | -19.02563 | 48.62836 | 25575 ft | 461 kts | 102° |
| 2026-04-26 08:45 | -19.03168 | 48.66183 | 26009 ft | 464 kts | 102° |
| 2026-04-26 08:45 | -19.03777 | 48.69551 | 26425 ft | 469 kts | 102° |
| 2026-04-26 08:45 | -19.04390 | 48.72953 | 26873 ft | 472 kts | 102° |
| 2026-04-26 08:45 | -19.05005 | 48.76373 | 27287 ft | 476 kts | 102° |
| 2026-04-26 08:46 | -19.05626 | 48.79827 | 27698 ft | 480 kts | 102° |
| 2026-04-26 08:46 | -19.06252 | 48.83308 | 28119 ft | 483 kts | 102° |
| 2026-04-26 08:46 | -19.06882 | 48.86813 | 28496 ft | 487 kts | 102° |
| 2026-04-26 08:46 | -19.07516 | 48.90342 | 28902 ft | 490 kts | 102° |
| 2026-04-26 08:47 | -19.08152 | 48.93896 | 29278 ft | 494 kts | 102° |
| 2026-04-26 08:47 | -19.08794 | 48.97481 | 29638 ft | 498 kts | 102° |
| 2026-04-26 08:47 | -19.09439 | 49.01088 | 29983 ft | 501 kts | 102° |
| 2026-04-26 08:47 | -19.10079 | 49.04675 | 30334 ft | 505 kts | 102° |
| 2026-04-26 08:48 | -19.10741 | 49.08381 | 30666 ft | 508 kts | 102° |
| 2026-04-26 08:48 | -19.11389 | 49.12017 | 30957 ft | 512 kts | 102° |
| 2026-04-26 08:48 | -19.12050 | 49.15729 | 31259 ft | 515 kts | 102° |
| 2026-04-26 08:48 | -19.12714 | 49.19465 | 31551 ft | 519 kts | 102° |
| 2026-04-26 08:49 | -19.13383 | 49.23227 | 31805 ft | 523 kts | 102° |
| 2026-04-26 08:49 | -19.14055 | 49.27013 | 32078 ft | 526 kts | 102° |
| 2026-04-26 08:49 | -19.14730 | 49.30829 | 32328 ft | 529 kts | 102° |
| 2026-04-26 08:49 | -19.15408 | 49.34666 | 32593 ft | 531 kts | 102° |
| 2026-04-26 08:50 | -19.16086 | 49.38514 | 32951 ft | 531 kts | 102° |
| 2026-04-26 08:50 | -19.16762 | 49.42357 | 33294 ft | 532 kts | 102° |
| 2026-04-26 08:50 | -19.17441 | 49.46210 | 33600 ft | 533 kts | 102° |
| 2026-04-26 08:50 | -19.18121 | 49.50072 | 33899 ft | 534 kts | 102° |
| 2026-04-26 08:51 | -19.19250 | 49.56497 | 34431 ft | 534 kts | 102° |
| 2026-04-26 08:51 | -19.19928 | 49.60367 | 34690 ft | 535 kts | 102° |
| 2026-04-26 08:51 | -19.20828 | 49.65503 | 35069 ft | 535 kts | 102° |
| 2026-04-26 08:52 | -19.21286 | 49.68122 | 35303 ft | 535 kts | 102° |
| 2026-04-26 08:52 | -19.21961 | 49.71992 | 35616 ft | 535 kts | 101° |
| 2026-04-26 08:52 | -19.22637 | 49.75863 | 35904 ft | 534 kts | 101° |
| 2026-04-26 08:52 | -19.23303 | 49.79684 | 36167 ft | 535 kts | 101° |
| 2026-04-26 08:53 | -19.23976 | 49.83554 | 36380 ft | 536 kts | 101° |
| 2026-04-26 08:53 | -19.24651 | 49.87439 | 36582 ft | 537 kts | 101° |
| 2026-04-26 08:53 | -19.25325 | 49.91323 | 36810 ft | 537 kts | 101° |
| 2026-04-26 08:53 | -19.25999 | 49.95209 | 36991 ft | 538 kts | 101° |
| 2026-04-26 08:54 | -19.26674 | 49.99110 | 37011 ft | 538 kts | 101° |
| 2026-04-26 08:54 | -19.28019 | 50.06894 | 37009 ft | 535 kts | 101° |
| 2026-04-26 08:55 | -19.29354 | 50.14624 | 37008 ft | 534 kts | 101° |
| 2026-04-26 08:55 | -19.30683 | 50.22363 | 37008 ft | 534 kts | 101° |
| 2026-04-26 08:56 | -19.31999 | 50.30058 | 37008 ft | 534 kts | 101° |
| 2026-04-26 08:56 | -19.33322 | 50.37806 | 37008 ft | 534 kts | 101° |
| 2026-04-26 08:57 | -19.34641 | 50.45548 | 37008 ft | 534 kts | 101° |
| 2026-04-26 08:57 | -19.35956 | 50.53297 | 37008 ft | 534 kts | 101° |
| 2026-04-26 08:58 | -19.37269 | 50.61055 | 37008 ft | 534 kts | 101° |
| 2026-04-26 08:58 | -19.38579 | 50.68809 | 37008 ft | 534 kts | 101° |
| 2026-04-26 08:59 | -19.39877 | 50.76503 | 37000 ft | 534 kts | 101° |
| 2026-04-26 08:59 | -19.41182 | 50.84256 | 36999 ft | 534 kts | 101° |
| 2026-04-26 09:00 | -19.42478 | 50.92001 | 36999 ft | 533 kts | 101° |
| 2026-04-26 09:00 | -19.43765 | 50.99699 | 36999 ft | 533 kts | 101° |
| 2026-04-26 09:01 | -19.45055 | 51.07427 | 36999 ft | 532 kts | 101° |
| 2026-04-26 09:01 | -19.46340 | 51.15156 | 36999 ft | 533 kts | 101° |
| 2026-04-26 09:02 | -19.47623 | 51.22895 | 36993 ft | 533 kts | 101° |
| 2026-04-26 09:02 | -19.48906 | 51.30647 | 36990 ft | 534 kts | 101° |
| 2026-04-26 09:03 | -19.50183 | 51.38392 | 36990 ft | 533 kts | 101° |
| 2026-04-26 09:03 | -19.51459 | 51.46148 | 36990 ft | 533 kts | 101° |
| 2026-04-26 09:04 | -19.52721 | 51.53842 | 36990 ft | 533 kts | 101° |
| 2026-04-26 09:04 | -19.53989 | 51.61597 | 36985 ft | 533 kts | 101° |
| 2026-04-26 09:05 | -19.55253 | 51.69351 | 36981 ft | 534 kts | 101° |
| 2026-04-26 09:05 | -19.56516 | 51.77112 | 36979 ft | 534 kts | 101° |
| 2026-04-26 09:06 | -19.57775 | 51.84869 | 36984 ft | 534 kts | 101° |
| 2026-04-26 09:06 | -19.59034 | 51.92632 | 36979 ft | 534 kts | 101° |
| 2026-04-26 09:07 | -19.60287 | 52.00395 | 36971 ft | 534 kts | 101° |
| 2026-04-26 09:07 | -19.61528 | 52.08127 | 36971 ft | 534 kts | 101° |
| 2026-04-26 09:08 | -19.62775 | 52.15904 | 36971 ft | 535 kts | 101° |
| 2026-04-26 09:08 | -19.64020 | 52.23681 | 36971 ft | 535 kts | 101° |
| 2026-04-26 09:09 | -19.65262 | 52.31474 | 36963 ft | 535 kts | 101° |
| 2026-04-26 09:09 | -19.66500 | 52.39261 | 36961 ft | 535 kts | 101° |
| 2026-04-26 09:10 | -19.67734 | 52.47038 | 36962 ft | 534 kts | 101° |
| 2026-04-26 09:10 | -19.68964 | 52.54813 | 36962 ft | 534 kts | 101° |
| 2026-04-26 09:11 | -19.70187 | 52.62585 | 36959 ft | 534 kts | 101° |
| 2026-04-26 09:11 | -19.71402 | 52.70315 | 36952 ft | 534 kts | 101° |
| 2026-04-26 09:12 | -19.72623 | 52.78089 | 36953 ft | 534 kts | 101° |
| 2026-04-26 09:12 | -19.73841 | 52.85876 | 36953 ft | 534 kts | 101° |
| 2026-04-26 09:13 | -19.75054 | 52.93656 | 36953 ft | 534 kts | 101° |
| 2026-04-26 09:13 | -19.76264 | 53.01440 | 36943 ft | 534 kts | 101° |
| 2026-04-26 09:14 | -19.77469 | 53.09220 | 36944 ft | 534 kts | 101° |
| 2026-04-26 09:14 | -19.78671 | 53.17002 | 36943 ft | 534 kts | 101° |
| 2026-04-26 09:15 | -19.79871 | 53.24791 | 36943 ft | 534 kts | 101° |
| 2026-04-26 09:15 | -19.81069 | 53.32574 | 36942 ft | 534 kts | 101° |
| 2026-04-26 09:16 | -19.82259 | 53.40368 | 36934 ft | 534 kts | 101° |
| 2026-04-26 09:16 | -19.83439 | 53.48099 | 36933 ft | 534 kts | 101° |
| 2026-04-26 09:17 | -19.84624 | 53.55888 | 36935 ft | 534 kts | 101° |
| 2026-04-26 09:17 | -19.85808 | 53.63677 | 36933 ft | 534 kts | 101° |
| 2026-04-26 09:18 | -19.86987 | 53.71468 | 36934 ft | 534 kts | 101° |
| 2026-04-26 09:18 | -19.88162 | 53.79265 | 36927 ft | 534 kts | 101° |
| 2026-04-26 09:19 | -19.89333 | 53.87064 | 36921 ft | 534 kts | 101° |
| 2026-04-26 09:19 | -19.90504 | 53.94857 | 36928 ft | 534 kts | 101° |
| 2026-04-26 09:20 | -19.91669 | 54.02650 | 36929 ft | 534 kts | 101° |
| 2026-04-26 09:20 | -19.92824 | 54.10406 | 36914 ft | 534 kts | 101° |
| 2026-04-26 09:21 | -19.93982 | 54.18208 | 36929 ft | 534 kts | 101° |
| 2026-04-26 09:21 | -19.95136 | 54.26009 | 36928 ft | 534 kts | 100° |
| 2026-04-26 09:22 | -19.96290 | 54.33831 | 36914 ft | 534 kts | 100° |
| 2026-04-26 09:22 | -19.97439 | 54.41636 | 36908 ft | 534 kts | 100° |
| 2026-04-26 09:23 | -19.98584 | 54.49439 | 36922 ft | 534 kts | 100° |
| 2026-04-26 09:23 | -19.99727 | 54.57245 | 36910 ft | 534 kts | 100° |
| 2026-04-26 09:24 | -20.00856 | 54.65005 | 36911 ft | 535 kts | 101° |
| 2026-04-26 09:24 | -20.01989 | 54.72831 | 36914 ft | 535 kts | 101° |
| 2026-04-26 09:25 | -20.03126 | 54.80662 | 36911 ft | 536 kts | 101° |
| 2026-04-26 09:25 | -20.04259 | 54.88498 | 36918 ft | 536 kts | 101° |
| 2026-04-26 09:26 | -20.05387 | 54.96327 | 36918 ft | 536 kts | 100° |
| 2026-04-26 09:26 | -20.06511 | 55.04162 | 36898 ft | 535 kts | 101° |
| 2026-04-26 09:26 | -20.07066 | 55.08048 | 36551 ft | 528 kts | 101° |
| 2026-04-26 09:27 | -20.07620 | 55.11919 | 35768 ft | 531 kts | 101° |
| 2026-04-26 09:27 | -20.08176 | 55.15789 | 35255 ft | 527 kts | 101° |
| 2026-04-26 09:27 | -20.08723 | 55.19630 | 34773 ft | 522 kts | 101° |
| 2026-04-26 09:27 | -20.09263 | 55.23442 | 34295 ft | 518 kts | 101° |
| 2026-04-26 09:28 | -20.09788 | 55.27165 | 33838 ft | 514 kts | 101° |
| 2026-04-26 09:28 | -20.10316 | 55.30904 | 33367 ft | 509 kts | 101° |
| 2026-04-26 09:28 | -20.10840 | 55.34618 | 32910 ft | 505 kts | 101° |
| 2026-04-26 09:28 | -20.11360 | 55.38299 | 32439 ft | 501 kts | 101° |
| 2026-04-26 09:29 | -20.11873 | 55.41950 | 31978 ft | 497 kts | 101° |
| 2026-04-26 09:29 | -20.12382 | 55.45569 | 31531 ft | 492 kts | 101° |
| 2026-04-26 09:29 | -20.12887 | 55.49157 | 31091 ft | 487 kts | 101° |
| 2026-04-26 09:29 | -20.13385 | 55.52704 | 30637 ft | 483 kts | 102° |
| 2026-04-26 09:30 | -20.13860 | 55.56231 | 30208 ft | 478 kts | 101° |
| 2026-04-26 09:30 | -20.14316 | 55.59717 | 29774 ft | 473 kts | 101° |
| 2026-04-26 09:30 | -20.14766 | 55.63168 | 29347 ft | 469 kts | 101° |
| 2026-04-26 09:30 | -20.15214 | 55.66588 | 28918 ft | 464 kts | 101° |
| 2026-04-26 09:31 | -20.15656 | 55.69966 | 28489 ft | 459 kts | 101° |
| 2026-04-26 09:31 | -20.16096 | 55.73323 | 28077 ft | 455 kts | 101° |
| 2026-04-26 09:31 | -20.16529 | 55.76634 | 27667 ft | 450 kts | 101° |
| 2026-04-26 09:31 | -20.16957 | 55.79915 | 27254 ft | 445 kts | 101° |
| 2026-04-26 09:32 | -20.17381 | 55.83162 | 26840 ft | 441 kts | 101° |
| 2026-04-26 09:32 | -20.17800 | 55.86378 | 26412 ft | 436 kts | 101° |
| 2026-04-26 09:32 | -20.18214 | 55.89554 | 26022 ft | 432 kts | 101° |
| 2026-04-26 09:32 | -20.18623 | 55.92702 | 25616 ft | 427 kts | 101° |
| 2026-04-26 09:33 | -20.19028 | 55.95819 | 25226 ft | 423 kts | 101° |
| 2026-04-26 09:33 | -20.19427 | 55.98907 | 24823 ft | 418 kts | 101° |
| 2026-04-26 09:33 | -20.19819 | 56.01957 | 24428 ft | 414 kts | 100° |
| 2026-04-26 09:33 | -20.20011 | 56.05006 | 24033 ft | 412 kts | 93° |
| 2026-04-26 09:34 | -20.20033 | 56.08049 | 23643 ft | 408 kts | 92° |
| 2026-04-26 09:34 | -20.20033 | 56.11018 | 23252 ft | 404 kts | 92° |
| 2026-04-26 09:34 | -20.20034 | 56.13999 | 22862 ft | 400 kts | 92° |
| 2026-04-26 09:34 | -20.20036 | 56.16945 | 22467 ft | 396 kts | 92° |
| 2026-04-26 09:35 | -20.20039 | 56.19869 | 22079 ft | 392 kts | 92° |
| 2026-04-26 09:35 | -20.20043 | 56.22763 | 21685 ft | 389 kts | 92° |
| 2026-04-26 09:35 | -20.20047 | 56.25633 | 21307 ft | 385 kts | 92° |
| 2026-04-26 09:35 | -20.20051 | 56.28468 | 20916 ft | 381 kts | 92° |
| 2026-04-26 09:36 | -20.20055 | 56.31277 | 20538 ft | 378 kts | 92° |
| 2026-04-26 09:36 | -20.20057 | 56.34063 | 20157 ft | 374 kts | 92° |
| 2026-04-26 09:36 | -20.20060 | 56.36817 | 19782 ft | 371 kts | 92° |
| 2026-04-26 09:36 | -20.20062 | 56.39545 | 19405 ft | 367 kts | 92° |
| 2026-04-26 09:37 | -20.20064 | 56.41340 | 19160 ft | 365 kts | 92° |
| 2026-04-26 09:37 | -20.20065 | 56.44031 | 18790 ft | 362 kts | 92° |
| 2026-04-26 09:37 | -20.20066 | 56.46697 | 18421 ft | 359 kts | 92° |
| 2026-04-26 09:37 | -20.20067 | 56.50196 | 17940 ft | 354 kts | 92° |
| 2026-04-26 09:38 | -20.20067 | 56.52808 | 17578 ft | 351 kts | 92° |
| 2026-04-26 09:38 | -20.20067 | 56.54559 | 17323 ft | 350 kts | 92° |
| 2026-04-26 09:38 | -20.20067 | 56.57137 | 16943 ft | 347 kts | 92° |
| 2026-04-26 09:38 | -20.20066 | 56.59660 | 16600 ft | 343 kts | 92° |
| 2026-04-26 09:39 | -20.20065 | 56.62195 | 16249 ft | 342 kts | 92° |
| 2026-04-26 09:39 | -20.20064 | 56.64725 | 15874 ft | 341 kts | 92° |
| 2026-04-26 09:39 | -20.20063 | 56.67237 | 15518 ft | 339 kts | 92° |
| 2026-04-26 09:39 | -20.20060 | 56.69742 | 15157 ft | 337 kts | 92° |
| 2026-04-26 09:40 | -20.20058 | 56.72229 | 14802 ft | 335 kts | 92° |
| 2026-04-26 09:40 | -20.20055 | 56.74703 | 14449 ft | 333 kts | 92° |
| 2026-04-26 09:40 | -20.20053 | 56.77160 | 14106 ft | 331 kts | 91° |
| 2026-04-26 09:40 | -20.20049 | 56.79603 | 13753 ft | 329 kts | 91° |
| 2026-04-26 09:41 | -20.20044 | 56.82034 | 13402 ft | 327 kts | 91° |
| 2026-04-26 09:41 | -20.20040 | 56.84453 | 13049 ft | 326 kts | 91° |
| 2026-04-26 09:41 | -20.20036 | 56.86863 | 12697 ft | 324 kts | 91° |
| 2026-04-26 09:41 | -20.20032 | 56.89258 | 12342 ft | 323 kts | 91° |
| 2026-04-26 09:42 | -20.20027 | 56.91637 | 11989 ft | 321 kts | 91° |
| 2026-04-26 09:42 | -20.20021 | 56.94006 | 11644 ft | 319 kts | 91° |
| 2026-04-26 09:42 | -20.20015 | 56.96362 | 11284 ft | 317 kts | 90° |
| 2026-04-26 09:42 | -20.20010 | 56.98698 | 10928 ft | 315 kts | 90° |
| 2026-04-26 09:43 | -20.20003 | 57.01012 | 10684 ft | 308 kts | 90° |
| 2026-04-26 09:43 | -20.19996 | 57.03241 | 10559 ft | 295 kts | 90° |
| 2026-04-26 09:43 | -20.19990 | 57.05384 | 10451 ft | 284 kts | 90° |
| 2026-04-26 09:43 | -20.19984 | 57.07429 | 10243 ft | 277 kts | 90° |
| 2026-04-26 09:44 | -20.19977 | 57.09476 | 9932 ft | 275 kts | 89° |
| 2026-04-26 09:44 | -20.19970 | 57.11513 | 9649 ft | 281 kts | 89° |
| 2026-04-26 09:44 | -20.19963 | 57.13636 | 9502 ft | 290 kts | 89° |
| 2026-04-26 09:44 | -20.19956 | 57.15782 | 9275 ft | 288 kts | 89° |
| 2026-04-26 09:45 | -20.19948 | 57.17916 | 8778 ft | 289 kts | 89° |
| 2026-04-26 09:45 | -20.19940 | 57.20046 | 8399 ft | 286 kts | 89° |
| 2026-04-26 09:45 | -20.19933 | 57.22155 | 8027 ft | 284 kts | 89° |
| 2026-04-26 09:45 | -20.19924 | 57.24225 | 7704 ft | 279 kts | 89° |
| 2026-04-26 09:46 | -20.19934 | 57.26286 | 7504 ft | 280 kts | 91° |
| 2026-04-26 09:46 | -20.20351 | 57.28303 | 7247 ft | 281 kts | 113° |
| 2026-04-26 09:46 | -20.21358 | 57.30083 | 6944 ft | 281 kts | 123° |
| 2026-04-26 09:46 | -20.22496 | 57.31773 | 6630 ft | 281 kts | 124° |
| 2026-04-26 09:47 | -20.23636 | 57.33452 | 6326 ft | 279 kts | 123° |
| 2026-04-26 09:47 | -20.24767 | 57.35129 | 6016 ft | 278 kts | 123° |
| 2026-04-26 09:47 | -20.25887 | 57.36799 | 5706 ft | 277 kts | 123° |
| 2026-04-26 09:47 | -20.26998 | 57.38461 | 5434 ft | 273 kts | 123° |
| 2026-04-26 09:48 | -20.28072 | 57.40070 | 5303 ft | 260 kts | 123° |
| 2026-04-26 09:48 | -20.29105 | 57.41594 | 5192 ft | 247 kts | 124° |
| 2026-04-26 09:48 | -20.30095 | 57.43041 | 5067 ft | 235 kts | 123° |
| 2026-04-26 09:48 | -20.31038 | 57.44423 | 5016 ft | 228 kts | 123° |
| 2026-04-26 09:49 | -20.31960 | 57.45778 | 4988 ft | 225 kts | 123° |
| 2026-04-26 09:49 | -20.32807 | 57.47190 | 4936 ft | 226 kts | 116° |
| 2026-04-26 09:49 | -20.33521 | 57.48617 | 4793 ft | 209 kts | 114° |
| 2026-04-26 09:49 | -20.34168 | 57.49962 | 4422 ft | 200 kts | 114° |
| 2026-04-26 09:50 | -20.34792 | 57.51261 | 3996 ft | 193 kts | 114° |
| 2026-04-26 09:50 | -20.35403 | 57.52536 | 3751 ft | 194 kts | 114° |
| 2026-04-26 09:50 | -20.35998 | 57.53786 | 3521 ft | 185 kts | 117° |
| 2026-04-26 09:50 | -20.36586 | 57.55004 | 3025 ft | 186 kts | 117° |
| 2026-04-26 09:51 | -20.37171 | 57.56197 | 2673 ft | 174 kts | 117° |
| 2026-04-26 09:51 | -20.37725 | 57.57282 | 2437 ft | 161 kts | 115° |
| 2026-04-26 09:51 | -20.38259 | 57.58292 | 2166 ft | 151 kts | 114° |
| 2026-04-26 09:51 | -20.38750 | 57.59268 | 1939 ft | 149 kts | 113° |
| 2026-04-26 09:52 | -20.39227 | 57.60254 | 1767 ft | 150 kts | 112° |
| 2026-04-26 09:52 | -20.40127 | 57.62235 | 1140 ft | 147 kts | 110° |
| 2026-04-26 09:52 | -20.40568 | 57.63214 | 916 ft | 147 kts | 113° |
| 2026-04-26 09:53 | -20.41029 | 57.64193 | 719 ft | 148 kts | 112° |
| 2026-04-26 09:53 | -20.41480 | 57.65161 | 572 ft | 148 kts | 113° |
| 2026-04-26 09:53 | -20.41950 | 57.66140 | 367 ft | 149 kts | 115° |
| 2026-04-26 09:53 | -20.42418 | 57.67107 | 216 ft | 145 kts | 114° |
| 2026-04-26 09:54 | -20.42847 | 57.68026 | 165 ft | 124 kts | 118° |
| 2026-04-26 09:54 | -20.43100 | 57.68458 | 153 ft | 12 kts | 174° |
| 2026-04-26 09:54 | -20.43147 | 57.68445 | 153 ft | 0 kts | 201° |